Time;durP1;ratioP1;P1;durP2;ratioP2;P2;SDS_P1;SDS_P2;PMS_P1;PMS_P2;Temp;Humidity;BMP_temperature;BMP_pressure;BME280_temperature;BME280_humidity;BME280_pressure;Samples;Min_cycle;Max_cycle;Signal;HPM_P1;HPM_P2
2023/05/18 00:01:15;;;;;;;10.77;5.10;;;7.60;94.10;;;;;;5079615;27;20875;-61
2023/05/18 00:03:42;;;;;;;4.70;4.30;;;7.70;94.00;;;;;;5065383;28;20471;-61
2023/05/18 00:06:09;;;;;;;5.53;4.83;;;7.70;93.80;;;;;;5070619;28;20486;-61
2023/05/18 00:08:38;;;;;;;6.80;5.30;;;7.60;93.80;;;;;;5068316;28;20482;-61
2023/05/18 00:11:06;;;;;;;9.40;5.40;;;7.50;93.80;;;;;;5069720;28;21279;-61
2023/05/18 00:13:33;;;;;;;5.23;4.60;;;7.40;93.70;;;;;;5067360;28;20471;-61
2023/05/18 00:16:00;;;;;;;11.70;4.80;;;7.40;93.50;;;;;;5070457;28;20571;-61
2023/05/18 00:18:27;;;;;;;6.13;5.13;;;7.40;93.70;;;;;;5068107;28;20471;-60
2023/05/18 00:20:59;;;;;;;10.50;5.20;;;7.30;94.00;;;;;;5066717;28;20756;-60
2023/05/18 00:23:28;;;;;;;6.60;5.03;;;7.20;94.70;;;;;;5076618;27;20851;-60
2023/05/18 00:25:57;;;;;;;5.87;5.37;;;7.00;95.00;;;;;;5077777;28;20467;-61
2023/05/18 00:28:24;;;;;;;5.40;4.90;;;7.20;94.70;;;;;;5071486;28;20771;-61
2023/05/18 00:30:51;;;;;;;10.33;4.70;;;7.20;94.40;;;;;;5070021;28;20479;-61
2023/05/18 00:33:18;;;;;;;9.83;4.10;;;7.20;94.00;;;;;;5084924;27;20476;-61
2023/05/18 00:35:45;;;;;;;8.30;5.27;;;7.20;94.10;;;;;;5078772;28;20837;-60
2023/05/18 00:38:14;;;;;;;7.37;4.70;;;7.20;94.10;;;;;;5067584;27;20634;-60
2023/05/18 00:40:41;;;;;;;5.13;4.17;;;7.30;94.00;;;;;;5095753;27;20493;-60
2023/05/18 00:43:09;;;;;;;6.73;5.17;;;7.30;93.80;;;;;;5060997;27;20483;-61
2023/05/18 00:45:36;;;;;;;4.70;4.10;;;7.30;93.60;;;;;;5097651;27;20471;-60
2023/05/18 00:48:03;;;;;;;8.73;4.60;;;7.20;93.50;;;;;;5091072;27;20477;-60
2023/05/18 00:50:30;;;;;;;10.27;4.90;;;7.20;93.30;;;;;;5067767;28;20493;-61
2023/05/18 00:52:57;;;;;;;7.80;4.57;;;7.20;93.30;;;;;;5070526;28;20884;-60
2023/05/18 00:55:26;;;;;;;5.77;4.53;;;7.20;93.30;;;;;;5070709;28;21030;-60
2023/05/18 00:57:55;;;;;;;9.63;5.10;;;7.20;93.60;;;;;;5069524;28;21005;-60
2023/05/18 01:00:23;;;;;;;10.50;5.10;;;7.10;93.70;;;;;;5071759;28;20573;-61
2023/05/18 01:02:51;;;;;;;8.53;6.40;;;7.10;94.00;;;;;;5074153;27;20990;-60
2023/05/18 01:05:18;;;;;;;8.20;5.47;;;7.10;93.90;;;;;;5090007;27;20981;-61
2023/05/18 01:07:46;;;;;;;6.43;4.60;;;7.10;93.70;;;;;;5066500;28;20513;-61
2023/05/18 01:10:16;;;;;;;8.37;5.27;;;7.00;93.50;;;;;;5069543;28;20836;-60
2023/05/18 01:12:49;;;;;;;7.77;5.10;;;6.90;93.30;;;;;;5073424;28;20831;-60
2023/05/18 01:15:18;;;;;;;4.27;3.83;;;6.90;93.20;;;;;;5074403;28;20526;-60
2023/05/18 01:17:59;;;;;;;6.43;4.20;;;6.90;92.80;;;;;;5074764;28;20474;-59
2023/05/18 01:20:36;;;;;;;5.07;4.20;;;6.90;93.10;;;;;;5071932;28;20854;-60
2023/05/18 01:23:53;;;;;;;7.33;4.93;;;6.90;93.20;;;;;;5071074;28;20489;-61
2023/05/18 01:26:28;;;;;;;6.77;5.03;;;6.80;93.30;;;;;;5074367;28;20716;-60
2023/05/18 01:28:58;;;;;;;8.53;5.67;;;6.80;93.70;;;;;;5073644;28;20877;-60
2023/05/18 01:31:25;;;;;;;7.70;5.53;;;6.70;93.90;;;;;;5074904;28;20970;-60
2023/05/18 01:33:52;;;;;;;7.30;6.10;;;6.70;94.10;;;;;;5074895;28;20469;-60
2023/05/18 01:36:19;;;;;;;8.30;4.60;;;6.70;94.20;;;;;;5074188;28;20994;-60
2023/05/18 01:38:46;;;;;;;13.10;4.80;;;6.70;94.30;;;;;;5090847;27;20734;-60
2023/05/18 01:41:18;;;;;;;6.50;4.60;;;6.70;94.20;;;;;;5078796;27;21771;-60
2023/05/18 01:43:53;;;;;;;9.70;4.17;;;6.70;94.20;;;;;;5071636;28;20909;-60
2023/05/18 01:46:32;;;;;;;8.00;4.97;;;6.70;94.20;;;;;;5070538;28;20546;-60
2023/05/18 01:49:10;;;;;;;8.07;5.67;;;6.70;94.10;;;;;;5073585;28;20500;-61
2023/05/18 01:51:43;;;;;;;14.23;5.70;;;6.70;94.30;;;;;;5065679;28;20469;-60
2023/05/18 01:54:12;;;;;;;10.47;5.10;;;6.80;94.30;;;;;;5078596;28;20470;-61
2023/05/18 01:56:40;;;;;;;10.60;4.13;;;6.70;94.30;;;;;;5072909;28;20466;-60
2023/05/18 01:59:08;;;;;;;6.60;4.87;;;6.70;94.40;;;;;;5071693;28;20474;-61
2023/05/18 02:01:35;;;;;;;14.40;6.70;;;6.70;94.20;;;;;;5071931;28;20489;-60
2023/05/18 02:04:02;;;;;;;11.23;5.20;;;6.70;94.40;;;;;;5073002;28;20501;-60
2023/05/18 02:06:29;;;;;;;9.13;4.53;;;6.70;94.40;;;;;;5069015;27;20491;-61
2023/05/18 02:08:55;;;;;;;13.67;5.47;;;6.70;94.40;;;;;;5099193;27;20482;-61
2023/05/18 02:11:22;;;;;;;9.23;4.97;;;6.70;94.40;;;;;;5074716;28;20467;-61
2023/05/18 02:13:49;;;;;;;5.30;4.57;;;6.70;94.50;;;;;;5074211;28;20482;-61
2023/05/18 02:16:18;;;;;;;7.13;5.10;;;6.70;94.50;;;;;;5074427;28;20709;-61
2023/05/18 02:18:45;;;;;;;17.53;5.17;;;6.70;94.50;;;;;;5073429;28;20549;-61
2023/05/18 02:21:12;;;;;;;7.07;4.67;;;6.70;94.50;;;;;;5076957;27;20553;-60
2023/05/18 02:23:39;;;;;;;12.90;4.93;;;6.70;94.60;;;;;;5070506;28;21075;-60
2023/05/18 02:26:06;;;;;;;14.70;5.07;;;6.70;94.40;;;;;;5071658;28;20556;-61
2023/05/18 02:28:33;;;;;;;11.73;5.90;;;6.70;94.30;;;;;;5076125;27;20482;-60
2023/05/18 02:31:07;;;;;;;5.63;5.00;;;6.70;94.20;;;;;;5070520;28;20483;-60
2023/05/18 02:33:38;;;;;;;10.77;5.10;;;6.70;94.30;;;;;;5072246;28;20482;-60
2023/05/18 02:36:07;;;;;;;6.03;5.30;;;6.70;94.30;;;;;;5072999;28;20467;-60
2023/05/18 02:38:36;;;;;;;7.03;4.43;;;6.70;94.40;;;;;;5072591;28;20474;-60
2023/05/18 02:41:03;;;;;;;7.93;5.23;;;6.60;94.50;;;;;;5073007;28;20497;-60
2023/05/18 02:43:29;;;;;;;10.70;4.70;;;6.60;94.20;;;;;;5073983;28;20497;-60
2023/05/18 02:45:56;;;;;;;5.53;4.80;;;6.60;94.30;;;;;;5072224;28;20481;-60
2023/05/18 02:48:23;;;;;;;8.10;4.30;;;6.60;94.60;;;;;;5071696;28;20854;-60
2023/05/18 02:50:52;;;;;;;8.53;5.10;;;6.50;94.70;;;;;;5071794;28;20458;-60
2023/05/18 02:53:18;;;;;;;10.53;5.27;;;6.50;94.70;;;;;;5073181;28;20485;-61
2023/05/18 02:55:45;;;;;;;10.23;4.50;;;6.50;94.90;;;;;;5074103;28;20863;-60
2023/05/18 02:58:13;;;;;;;6.90;5.03;;;6.40;94.90;;;;;;5072169;28;20547;-61
2023/05/18 03:00:40;;;;;;;6.03;4.60;;;6.40;94.90;;;;;;5073765;28;20478;-60
2023/05/18 03:03:09;;;;;;;13.83;6.00;;;6.40;95.10;;;;;;5071642;28;20601;-61
2023/05/18 03:05:36;;;;;;;7.17;4.60;;;6.40;95.10;;;;;;5077300;28;20478;-60
2023/05/18 03:08:05;;;;;;;6.80;5.10;;;6.30;95.00;;;;;;5093204;27;20488;-60
2023/05/18 03:10:32;;;;;;;7.17;5.53;;;6.30;95.10;;;;;;5071600;28;20489;-60
2023/05/18 03:12:59;;;;;;;9.23;5.90;;;6.30;95.10;;;;;;5073012;28;20893;-60
2023/05/18 03:15:26;;;;;;;7.57;4.83;;;6.30;95.10;;;;;;5073328;28;20463;-60
2023/05/18 03:17:53;;;;;;;11.10;5.80;;;6.30;95.10;;;;;;5075668;27;20477;-60
2023/05/18 03:20:20;;;;;;;6.10;4.73;;;6.30;95.10;;;;;;5089346;27;20828;-60
2023/05/18 03:22:47;;;;;;;15.37;4.80;;;6.30;95.10;;;;;;5068156;28;20929;-60
2023/05/18 03:25:15;;;;;;;8.73;4.43;;;6.30;95.10;;;;;;5068779;28;20482;-60
2023/05/18 03:27:42;;;;;;;13.03;4.83;;;6.40;95.10;;;;;;5065713;28;20649;-60
2023/05/18 03:30:09;;;;;;;13.27;5.47;;;6.30;94.90;;;;;;5084818;28;20622;-60
2023/05/18 03:32:36;;;;;;;6.97;5.53;;;6.40;95.30;;;;;;5072678;28;20474;-60
2023/05/18 03:35:04;;;;;;;8.07;5.20;;;6.40;95.20;;;;;;5063923;27;20486;-60
2023/05/18 03:37:31;;;;;;;7.27;5.93;;;6.40;95.20;;;;;;5096725;27;21018;-59
2023/05/18 03:40:09;;;;;;;6.97;5.43;;;6.40;95.20;;;;;;5064717;28;20612;-60
2023/05/18 03:42:37;;;;;;;10.40;4.73;;;6.30;95.10;;;;;;5067303;28;20685;-60
2023/05/18 03:45:05;;;;;;;12.10;5.97;;;6.30;95.10;;;;;;5065039;28;20490;-60
2023/05/18 03:47:32;;;;;;;12.00;5.57;;;6.30;95.20;;;;;;5070042;28;20490;-60
2023/05/18 03:49:59;;;;;;;10.83;5.17;;;6.30;95.10;;;;;;5068322;28;20513;-60
2023/05/18 03:52:28;;;;;;;9.33;5.37;;;6.40;95.20;;;;;;5067679;28;20492;-60
2023/05/18 03:54:56;;;;;;;7.43;5.20;;;6.30;95.10;;;;;;5064285;27;20501;-60
2023/05/18 03:57:23;;;;;;;11.40;5.07;;;6.30;95.20;;;;;;5091461;27;20817;-60
2023/05/18 03:59:52;;;;;;;10.47;4.87;;;6.30;95.10;;;;;;5079766;28;20539;-60
2023/05/18 04:02:18;;;;;;;14.80;4.97;;;6.30;95.00;;;;;;5072404;28;20478;-60
2023/05/18 04:04:46;;;;;;;8.73;4.30;;;6.30;95.00;;;;;;5062761;28;20474;-60
2023/05/18 04:07:15;;;;;;;11.27;5.40;;;6.30;95.30;;;;;;5080731;27;20487;-60
2023/05/18 04:09:42;;;;;;;12.87;5.13;;;6.30;95.00;;;;;;5076281;27;20480;-60
2023/05/18 04:12:10;;;;;;;13.50;4.80;;;6.30;95.00;;;;;;5070549;28;20489;-60
2023/05/18 04:14:37;;;;;;;9.23;6.00;;;6.40;94.90;;;;;;5069143;28;20475;-60
2023/05/18 04:17:05;;;;;;;10.70;5.57;;;6.40;95.20;;;;;;5063861;28;20474;-60
2023/05/18 04:19:32;;;;;;;8.47;4.87;;;6.50;94.90;;;;;;5092748;27;20475;-60
2023/05/18 04:22:03;;;;;;;6.97;4.40;;;6.50;95.20;;;;;;5067660;28;20478;-60
2023/05/18 04:24:31;;;;;;;9.30;5.70;;;6.50;94.90;;;;;;5067794;28;20471;-60
2023/05/18 04:26:58;;;;;;;9.87;5.50;;;6.60;95.10;;;;;;5080707;27;20936;-61
2023/05/18 04:29:25;;;;;;;11.63;5.90;;;6.60;95.00;;;;;;5072124;28;21100;-60
2023/05/18 04:31:52;;;;;;;10.03;5.80;;;6.60;94.90;;;;;;5069257;28;20573;-60
2023/05/18 04:34:20;;;;;;;7.20;4.87;;;6.60;94.80;;;;;;5070224;28;20483;-60
2023/05/18 04:36:47;;;;;;;8.10;4.63;;;6.60;94.90;;;;;;5092647;27;20480;-59
2023/05/18 04:39:14;;;;;;;5.53;5.03;;;6.60;95.30;;;;;;5072722;28;20471;-60
2023/05/18 04:41:41;;;;;;;10.70;4.97;;;6.70;95.20;;;;;;5073748;28;20478;-59
2023/05/18 04:44:08;;;;;;;16.80;5.80;;;6.70;95.50;;;;;;5070224;28;20481;-59
2023/05/18 04:46:38;;;;;;;9.27;5.50;;;6.80;95.60;;;;;;5070438;28;20478;-60
2023/05/18 04:49:05;;;;;;;9.00;4.70;;;6.70;96.00;;;;;;5073407;28;20523;-59
2023/05/18 04:51:33;;;;;;;16.57;6.50;;;6.80;95.70;;;;;;5073666;28;20478;-60
2023/05/18 04:54:01;;;;;;;9.83;5.30;;;6.80;96.00;;;;;;5072416;28;20490;-59
2023/05/18 04:56:29;;;;;;;7.80;6.10;;;6.90;96.00;;;;;;5071822;28;20489;-60
2023/05/18 04:58:58;;;;;;;8.50;5.00;;;6.90;96.30;;;;;;5070149;28;20494;-59
2023/05/18 05:01:25;;;;;;;9.17;5.53;;;7.00;96.20;;;;;;5071674;28;20525;-60
2023/05/18 05:03:52;;;;;;;14.13;5.70;;;7.10;96.50;;;;;;5070722;28;21066;-60
2023/05/18 05:06:19;;;;;;;15.97;5.20;;;7.20;96.70;;;;;;5072106;28;20578;-59
2023/05/18 05:08:47;;;;;;;9.37;5.87;;;7.20;96.40;;;;;;5068340;28;20501;-59
2023/05/18 05:11:14;;;;;;;8.43;5.07;;;7.30;96.40;;;;;;5066761;28;20779;-59
2023/05/18 05:13:41;;;;;;;7.70;5.70;;;7.40;96.60;;;;;;5069723;28;20469;-60
2023/05/18 05:16:08;;;;;;;11.00;5.80;;;7.50;96.90;;;;;;5071304;28;20470;-59
2023/05/18 05:18:34;;;;;;;12.33;5.70;;;7.70;96.70;;;;;;5068457;28;20471;-59
2023/05/18 05:21:01;;;;;;;8.77;5.10;;;7.70;97.00;;;;;;5068889;28;20553;-60
2023/05/18 05:23:28;;;;;;;13.20;5.57;;;7.90;97.30;;;;;;5065695;28;20474;-59
2023/05/18 05:25:56;;;;;;;12.23;5.47;;;8.10;97.20;;;;;;5066998;28;20790;-60
2023/05/18 05:28:23;;;;;;;14.40;5.57;;;8.30;96.90;;;;;;5068394;28;20478;-59
2023/05/18 05:30:50;;;;;;;14.63;5.73;;;8.40;97.00;;;;;;5088984;27;20495;-60
2023/05/18 05:33:18;;;;;;;9.77;4.63;;;8.60;96.70;;;;;;5070996;28;20489;-61
2023/05/18 05:35:45;;;;;;;14.47;5.40;;;8.80;96.40;;;;;;5070686;28;20486;-60
2023/05/18 05:38:12;;;;;;;13.90;5.33;;;8.90;96.30;;;;;;5068175;28;20636;-60
2023/05/18 05:40:38;;;;;;;10.00;4.83;;;9.20;96.00;;;;;;5066794;28;20492;-60
2023/05/18 05:43:07;;;;;;;9.03;4.33;;;9.20;96.10;;;;;;5069508;28;20490;-60
2023/05/18 05:45:33;;;;;;;9.10;4.97;;;9.40;95.40;;;;;;5069286;28;20498;-60
2023/05/18 05:48:00;;;;;;;6.93;6.23;;;9.50;95.60;;;;;;5068177;28;20879;-59
2023/05/18 05:50:27;;;;;;;12.70;4.23;;;9.60;95.70;;;;;;5068553;28;20482;-60
2023/05/18 05:52:54;;;;;;;7.37;5.93;;;9.70;95.20;;;;;;5076988;27;20468;-59
2023/05/18 05:55:22;;;;;;;5.90;4.27;;;9.80;95.20;;;;;;5083511;28;20900;-59
2023/05/18 05:57:49;;;;;;;8.23;4.47;;;9.90;95.20;;;;;;5070154;28;20990;-60
2023/05/18 06:00:18;;;;;;;9.23;5.30;;;10.00;94.90;;;;;;5071145;28;20481;-60
2023/05/18 06:02:45;;;;;;;12.77;4.20;;;10.30;93.90;;;;;;5061644;28;20470;-60
2023/05/18 06:05:12;;;;;;;6.97;4.73;;;10.30;94.30;;;;;;5065939;27;20552;-60
2023/05/18 06:07:39;;;;;;;14.77;6.70;;;10.50;94.60;;;;;;5100038;27;20983;-60
2023/05/18 06:10:07;;;;;;;11.63;5.07;;;10.60;93.90;;;;;;5089962;27;20890;-60
2023/05/18 06:12:33;;;;;;;11.80;4.30;;;10.70;93.60;;;;;;5074123;28;20490;-60
2023/05/18 06:15:00;;;;;;;10.40;4.80;;;10.80;93.40;;;;;;5070788;28;20486;-60
2023/05/18 06:17:29;;;;;;;12.07;4.43;;;10.90;93.80;;;;;;5070833;28;20471;-60
2023/05/18 06:19:56;;;;;;;9.83;4.83;;;11.10;93.40;;;;;;5070493;28;20804;-60
2023/05/18 06:22:23;;;;;;;9.40;4.47;;;11.20;92.90;;;;;;5073239;28;20846;-60
2023/05/18 06:24:50;;;;;;;12.63;5.00;;;11.30;92.70;;;;;;5071476;28;20978;-60
2023/05/18 06:27:18;;;;;;;8.13;3.60;;;11.40;93.30;;;;;;5072029;28;20474;-60
2023/05/18 06:29:44;;;;;;;9.53;4.20;;;11.50;92.80;;;;;;5072438;28;20585;-60
2023/05/18 06:32:12;;;;;;;13.60;4.43;;;11.70;93.10;;;;;;5063237;28;20479;-60
2023/05/18 06:34:41;;;;;;;7.03;3.30;;;12.00;92.60;;;;;;5071297;28;20475;-60
2023/05/18 06:37:08;;;;;;;16.77;4.27;;;12.10;92.50;;;;;;5077734;28;20849;-60
2023/05/18 06:39:34;;;;;;;5.30;3.10;;;12.10;92.70;;;;;;5069636;28;20475;-60
2023/05/18 06:42:01;;;;;;;5.50;3.50;;;12.20;91.50;;;;;;5064769;28;21225;-60
2023/05/18 06:44:28;;;;;;;16.03;4.83;;;12.30;91.50;;;;;;5073265;28;20530;-60
2023/05/18 06:46:55;;;;;;;7.57;4.00;;;12.40;91.30;;;;;;5071327;28;20488;-60
2023/05/18 06:49:22;;;;;;;12.63;4.10;;;12.50;91.20;;;;;;5063961;27;20479;-61
2023/05/18 06:51:50;;;;;;;8.47;4.13;;;12.60;90.80;;;;;;5093235;27;20979;-61
2023/05/18 06:54:17;;;;;;;5.37;3.77;;;12.70;91.30;;;;;;5073040;28;20477;-61
2023/05/18 06:56:45;;;;;;;9.33;4.33;;;12.90;91.20;;;;;;5074571;28;20565;-61
2023/05/18 06:59:12;;;;;;;15.03;4.57;;;13.10;90.90;;;;;;5072809;28;21192;-60
2023/05/18 07:01:38;;;;;;;15.50;4.00;;;13.30;90.60;;;;;;5073350;28;20784;-61
2023/05/18 07:04:05;;;;;;;8.10;4.43;;;13.50;89.80;;;;;;5074642;27;20483;-61
2023/05/18 07:06:32;;;;;;;13.57;4.60;;;13.70;90.00;;;;;;5087880;27;20489;-61
2023/05/18 07:09:02;;;;;;;8.53;4.23;;;13.90;89.30;;;;;;5070963;28;21034;-60
2023/05/18 07:11:28;;;;;;;6.83;3.90;;;13.90;89.40;;;;;;5071127;28;20869;-61
2023/05/18 07:13:55;;;;;;;7.60;3.70;;;14.10;89.80;;;;;;5072369;28;20491;-61
2023/05/18 07:16:22;;;;;;;11.00;4.10;;;14.20;88.60;;;;;;5071055;28;20826;-60
2023/05/18 07:18:49;;;;;;;7.83;4.03;;;14.40;89.70;;;;;;5072938;28;20843;-61
2023/05/18 07:21:16;;;;;;;11.43;3.57;;;14.70;87.70;;;;;;5075421;28;20479;-61
2023/05/18 07:23:43;;;;;;;6.83;3.50;;;14.70;87.60;;;;;;5074722;28;20502;-61
2023/05/18 07:26:11;;;;;;;8.50;3.00;;;15.10;88.80;;;;;;5072664;28;20837;-61
2023/05/18 07:28:38;;;;;;;8.60;3.77;;;15.30;88.60;;;;;;5072728;28;20998;-61
2023/05/18 07:31:06;;;;;;;16.40;5.47;;;15.40;88.20;;;;;;5069004;28;20475;-61
2023/05/18 07:33:32;;;;;;;7.83;3.93;;;15.50;87.30;;;;;;5067325;28;20498;-61
2023/05/18 07:35:59;;;;;;;7.90;3.80;;;15.70;85.50;;;;;;5070312;28;20920;-61
2023/05/18 07:38:26;;;;;;;9.20;3.13;;;15.70;85.20;;;;;;5072125;28;20609;-61
2023/05/18 07:40:53;;;;;;;13.90;3.90;;;15.80;83.50;;;;;;5083983;27;20480;-61
2023/05/18 07:43:21;;;;;;;10.77;3.77;;;15.80;83.60;;;;;;5077828;27;20817;-61
2023/05/18 07:45:48;;;;;;;7.70;3.50;;;15.90;84.10;;;;;;5059510;28;20595;-61
2023/05/18 07:48:15;;;;;;;8.23;3.03;;;16.20;88.10;;;;;;5073013;28;21001;-61
2023/05/18 07:50:42;;;;;;;8.10;3.70;;;16.30;83.90;;;;;;5072363;28;20481;-61
2023/05/18 07:53:09;;;;;;;6.87;3.60;;;16.60;83.60;;;;;;5069615;28;20826;-62
2023/05/18 07:55:36;;;;;;;7.00;3.20;;;16.70;84.50;;;;;;5072404;28;21683;-61
2023/05/18 07:58:03;;;;;;;5.83;3.27;;;16.90;85.20;;;;;;5069413;28;20562;-61
2023/05/18 08:00:32;;;;;;;5.93;3.30;;;17.00;84.60;;;;;;5071600;28;20939;-61
2023/05/18 08:02:59;;;;;;;11.83;3.40;;;17.10;83.30;;;;;;5082733;27;21024;-62
2023/05/18 08:05:26;;;;;;;4.43;2.50;;;17.30;84.50;;;;;;5073298;27;21083;-61
2023/05/18 08:07:53;;;;;;;5.60;3.43;;;17.30;81.00;;;;;;5071395;28;20474;-61
2023/05/18 08:10:20;;;;;;;17.00;3.37;;;17.40;81.50;;;;;;5071798;28;20471;-61
2023/05/18 08:12:46;;;;;;;3.77;3.30;;;17.30;79.70;;;;;;5073570;28;20954;-62
2023/05/18 08:15:13;;;;;;;12.37;4.77;;;17.40;81.80;;;;;;5072953;28;20474;-61
2023/05/18 08:17:41;;;;;;;13.43;4.80;;;17.50;81.80;;;;;;5072634;28;20486;-62
2023/05/18 08:20:10;;;;;;;5.50;3.50;;;17.70;80.50;;;;;;5068948;28;21009;-62
2023/05/18 08:22:36;;;;;;;11.80;3.47;;;17.80;81.10;;;;;;5069844;28;20475;-62
2023/05/18 08:25:04;;;;;;;9.73;2.90;;;17.90;81.60;;;;;;5072982;28;20493;-62
2023/05/18 08:27:31;;;;;;;8.93;2.93;;;17.90;80.10;;;;;;5073077;28;20853;-61
2023/05/18 08:29:57;;;;;;;14.03;4.63;;;18.00;80.30;;;;;;5070670;28;20481;-62
2023/05/18 08:32:25;;;;;;;10.07;3.30;;;18.20;81.70;;;;;;5069423;28;20835;-62
2023/05/18 08:34:53;;;;;;;5.90;2.90;;;18.10;77.30;;;;;;5070595;28;20491;-62
2023/05/18 08:37:21;;;;;;;8.70;3.30;;;18.00;75.20;;;;;;5068277;28;20967;-62
2023/05/18 08:39:47;;;;;;;6.30;3.10;;;18.00;79.20;;;;;;5072252;28;21657;-62
2023/05/18 08:42:20;;;;;;;6.33;3.37;;;18.10;79.10;;;;;;5071864;28;20479;-62
2023/05/18 08:44:56;;;;;;;7.80;3.40;;;18.20;77.00;;;;;;5072421;28;20710;-62
2023/05/18 08:47:25;;;;;;;7.53;2.70;;;18.40;76.20;;;;;;5059289;28;20477;-62
2023/05/18 08:49:56;;;;;;;6.33;3.37;;;18.30;77.60;;;;;;5068784;28;20561;-62
2023/05/18 08:52:26;;;;;;;12.00;3.03;;;18.30;75.00;;;;;;5062678;28;20927;-62
2023/05/18 08:54:55;;;;;;;6.53;3.30;;;18.40;77.70;;;;;;5057743;28;20519;-62
2023/05/18 08:57:22;;;;;;;3.93;2.50;;;18.40;77.50;;;;;;5060487;28;20742;-62
2023/05/18 08:59:52;;;;;;;6.73;3.40;;;18.50;76.70;;;;;;5060213;27;20502;-62
2023/05/18 09:02:19;;;;;;;11.97;3.00;;;18.50;76.70;;;;;;5096181;27;20483;-62
2023/05/18 09:04:47;;;;;;;3.63;2.57;;;18.70;76.20;;;;;;5071966;28;21104;-61
2023/05/18 09:07:17;;;;;;;6.70;3.13;;;18.90;75.30;;;;;;5071408;28;20449;-62
2023/05/18 09:09:45;;;;;;;9.97;3.27;;;18.90;75.10;;;;;;5069142;28;20977;-62
2023/05/18 09:12:13;;;;;;;4.53;3.00;;;18.90;74.30;;;;;;5091000;27;20484;-62
2023/05/18 09:14:42;;;;;;;7.50;3.00;;;18.90;71.60;;;;;;5074368;28;20475;-62
2023/05/18 09:17:09;;;;;;;6.00;2.90;;;18.90;72.70;;;;;;5075182;27;20726;-62
2023/05/18 09:19:36;;;;;;;10.70;3.03;;;18.90;72.90;;;;;;5066326;28;20482;-62
2023/05/18 09:22:03;;;;;;;7.93;2.70;;;18.80;73.40;;;;;;5064336;28;20497;-62
2023/05/18 09:24:32;;;;;;;4.87;3.10;;;18.90;73.90;;;;;;5071389;28;20477;-62
2023/05/18 09:26:59;;;;;;;11.07;3.30;;;19.20;75.90;;;;;;5073820;28;20489;-62
2023/05/18 09:29:26;;;;;;;7.50;3.00;;;19.20;73.80;;;;;;5069610;28;20478;-63
2023/05/18 09:31:53;;;;;;;7.80;2.80;;;19.40;76.40;;;;;;5094821;27;21193;-62
2023/05/18 09:34:20;;;;;;;13.50;3.30;;;19.30;71.00;;;;;;5075099;28;20513;-63
2023/05/18 09:36:48;;;;;;;6.63;2.77;;;19.30;71.70;;;;;;5073361;27;20836;-62
2023/05/18 09:39:15;;;;;;;3.87;2.87;;;19.30;73.90;;;;;;5070302;27;20484;-62
2023/05/18 09:41:44;;;;;;;12.40;3.60;;;19.30;73.20;;;;;;5099309;27;20695;-62
2023/05/18 09:44:11;;;;;;;7.00;2.90;;;19.40;73.10;;;;;;5074065;27;20481;-61
2023/05/18 09:46:39;;;;;;;8.97;3.17;;;19.20;73.20;;;;;;5086059;27;20509;-62
2023/05/18 09:49:07;;;;;;;5.57;3.83;;;19.40;75.40;;;;;;5068730;27;20851;-62
2023/05/18 09:51:37;;;;;;;16.00;4.10;;;19.80;73.90;;;;;;5052160;27;20499;-62
2023/05/18 09:54:07;;;;;;;12.03;3.60;;;20.00;73.40;;;;;;5084575;27;21303;-62
2023/05/18 09:56:36;;;;;;;7.27;2.87;;;20.00;74.50;;;;;;5086013;27;20480;-62
2023/05/18 09:59:16;;;;;;;8.00;3.30;;;19.90;72.20;;;;;;5076232;27;20477;-62
2023/05/18 10:02:00;;;;;;;8.37;2.83;;;20.00;74.60;;;;;;5079012;27;20491;-62
2023/05/18 10:04:35;;;;;;;13.03;3.20;;;20.30;72.70;;;;;;5079783;27;20816;-62
2023/05/18 10:07:03;;;;;;;8.70;2.87;;;20.40;75.10;;;;;;5061733;27;20888;-63
2023/05/18 10:09:30;;;;;;;9.20;3.37;;;20.50;72.20;;;;;;5088148;27;20474;-63
2023/05/18 10:11:57;;;;;;;10.30;4.00;;;20.60;72.40;;;;;;5066875;28;20547;-62
2023/05/18 10:14:29;;;;;;;9.80;3.70;;;20.30;66.40;;;;;;5067561;28;20486;-62
2023/05/18 10:16:56;;;;;;;12.10;5.00;;;20.30;70.90;;;;;;5058662;27;20483;-62
2023/05/18 10:19:22;;;;;;;11.67;3.60;;;20.40;70.30;;;;;;5090381;27;20478;-62
2023/05/18 10:21:51;;;;;;;6.30;3.27;;;20.50;72.10;;;;;;5056774;28;21354;-62
2023/05/18 10:24:21;;;;;;;10.13;3.40;;;20.50;70.30;;;;;;5080099;27;20904;-61
2023/05/18 10:26:50;;;;;;;7.07;3.43;;;20.60;70.20;;;;;;5086662;27;20975;-62
2023/05/18 10:29:17;;;;;;;8.70;3.33;;;20.60;70.90;;;;;;5077786;27;20464;-62
2023/05/18 10:31:46;;;;;;;6.83;3.53;;;20.50;72.90;;;;;;5085528;27;20690;-62
2023/05/18 10:34:14;;;;;;;10.70;4.47;;;20.70;71.70;;;;;;5079726;27;20482;-62
2023/05/18 10:36:42;;;;;;;8.20;3.07;;;20.70;69.90;;;;;;5090908;27;20481;-62
2023/05/18 10:39:11;;;;;;;6.40;3.60;;;20.70;67.00;;;;;;5088842;27;20474;-62
2023/05/18 10:41:39;;;;;;;7.03;3.87;;;20.80;67.40;;;;;;5070276;28;20464;-62
2023/05/18 10:44:07;;;;;;;7.80;3.40;;;20.80;71.20;;;;;;5071989;28;20467;-62
2023/05/18 10:46:35;;;;;;;4.90;3.30;;;20.80;69.70;;;;;;5072211;28;20479;-66
2023/05/18 10:49:11;;;;;;;6.47;3.23;;;20.90;70.40;;;;;;5090500;27;20513;-63
2023/05/18 10:51:41;;;;;;;8.73;3.50;;;20.90;72.20;;;;;;5084044;27;20505;-63
2023/05/18 10:54:12;;;;;;;10.70;3.40;;;21.00;71.90;;;;;;5082040;27;20619;-63
2023/05/18 10:56:41;;;;;;;6.80;4.30;;;21.00;69.10;;;;;;5067311;27;20489;-64
2023/05/18 10:59:09;;;;;;;6.67;4.90;;;20.90;70.20;;;;;;5076259;28;21023;-64
2023/05/18 11:01:37;;;;;;;20.57;4.40;;;20.90;70.80;;;;;;5054670;28;20489;-64
2023/05/18 11:04:05;;;;;;;8.90;4.07;;;21.10;71.90;;;;;;5086041;27;20486;-63
2023/05/18 11:06:33;;;;;;;9.87;4.17;;;21.10;69.00;;;;;;5081112;27;20527;-63
2023/05/18 11:09:01;;;;;;;9.40;3.37;;;21.20;71.30;;;;;;5087055;27;20520;-62
2023/05/18 11:11:29;;;;;;;11.70;4.07;;;21.10;71.50;;;;;;5083479;27;20486;-63
2023/05/18 11:14:01;;;;;;;23.27;5.23;;;21.10;69.20;;;;;;5092906;27;20475;-63
2023/05/18 11:16:33;;;;;;;12.47;4.03;;;21.10;69.90;;;;;;5074161;28;20459;-63
2023/05/18 11:19:08;;;;;;;5.13;4.17;;;21.30;72.60;;;;;;5075986;28;20710;-63
2023/05/18 11:21:56;;;;;;;4.83;3.50;;;21.20;71.80;;;;;;5075480;28;20473;-63
2023/05/18 11:24:30;;;;;;;12.10;3.70;;;21.30;70.60;;;;;;5054183;27;20858;-62
2023/05/18 11:26:58;;;;;;;11.20;4.27;;;21.20;70.50;;;;;;5084600;27;20470;-63
2023/05/18 11:29:31;;;;;;;6.33;4.03;;;21.50;73.40;;;;;;5071361;27;20459;-64
2023/05/18 11:31:58;;;;;;;8.47;4.27;;;21.40;73.40;;;;;;5070739;28;20482;-63
2023/05/18 11:34:43;;;;;;;9.60;4.53;;;21.40;74.40;;;;;;5067013;27;20484;-63
2023/05/18 11:37:10;;;;;;;8.40;3.60;;;21.20;68.80;;;;;;5077934;27;20506;-63
2023/05/18 11:39:37;;;;;;;7.23;3.87;;;21.00;70.10;;;;;;5059790;28;20548;-64
2023/05/18 11:42:08;;;;;;;11.70;5.17;;;21.10;72.80;;;;;;5074839;28;20979;-63
2023/05/18 11:44:35;;;;;;;10.27;4.50;;;21.20;70.10;;;;;;5075418;27;20863;-64
2023/05/18 11:47:03;;;;;;;8.27;3.87;;;21.20;70.00;;;;;;5081696;27;20479;-63
2023/05/18 11:49:31;;;;;;;6.87;3.90;;;21.20;71.40;;;;;;5087495;27;20836;-63
2023/05/18 11:52:04;;;;;;;10.30;4.50;;;21.10;69.10;;;;;;5064588;28;20483;-63
2023/05/18 11:54:39;;;;;;;12.03;4.57;;;21.10;70.70;;;;;;5062135;27;20468;-63
2023/05/18 11:57:09;;;;;;;11.00;3.90;;;21.10;71.70;;;;;;5077891;27;20515;-63
2023/05/18 11:59:38;;;;;;;4.83;3.80;;;21.20;70.50;;;;;;5095285;27;20468;-63
2023/05/18 12:02:06;;;;;;;7.70;3.70;;;21.20;71.50;;;;;;5081340;27;21120;-63
2023/05/18 12:04:33;;;;;;;7.90;3.90;;;21.10;66.20;;;;;;5097619;27;20609;-63
2023/05/18 12:07:06;;;;;;;8.80;4.17;;;21.20;71.30;;;;;;5059742;28;20483;-63
2023/05/18 12:09:33;;;;;;;14.33;3.97;;;21.20;72.00;;;;;;5064404;28;20893;-63
2023/05/18 12:12:01;;;;;;;8.10;4.00;;;21.30;71.70;;;;;;5069983;27;20858;-63
2023/05/18 12:14:30;;;;;;;7.90;3.63;;;21.30;70.00;;;;;;5081646;27;20455;-63
2023/05/18 12:16:58;;;;;;;6.93;3.60;;;21.50;71.40;;;;;;5061786;27;20999;-63
2023/05/18 12:19:26;;;;;;;5.67;3.90;;;21.60;73.30;;;;;;5087175;27;20494;-63
2023/05/18 12:21:53;;;;;;;8.67;3.73;;;21.40;68.40;;;;;;5069392;27;20480;-63
2023/05/18 12:24:21;;;;;;;12.00;4.53;;;21.30;68.40;;;;;;5080676;27;20497;-63
2023/05/18 12:26:48;;;;;;;7.10;4.20;;;21.40;70.80;;;;;;5055030;28;20466;-64
2023/05/18 12:29:18;;;;;;;8.20;4.20;;;21.50;70.00;;;;;;5069358;27;20499;-64
2023/05/18 12:31:47;;;;;;;5.60;3.93;;;21.40;68.80;;;;;;5095872;27;21011;-64
2023/05/18 12:34:14;;;;;;;9.80;3.70;;;21.50;70.90;;;;;;5068662;27;20481;-62
2023/05/18 12:36:43;;;;;;;6.50;4.30;;;21.80;71.00;;;;;;5085706;27;20575;-64
2023/05/18 12:39:09;;;;;;;6.40;3.87;;;21.90;69.30;;;;;;5072774;27;20690;-64
2023/05/18 12:41:38;;;;;;;9.47;3.87;;;21.90;68.70;;;;;;5064440;28;20471;-65
2023/05/18 12:44:05;;;;;;;7.90;3.60;;;22.00;70.70;;;;;;5087469;27;20478;-65
2023/05/18 12:46:32;;;;;;;11.93;4.87;;;21.60;65.90;;;;;;5060528;28;20557;-64
2023/05/18 12:49:00;;;;;;;7.20;4.13;;;21.60;68.60;;;;;;5086853;27;20550;-63
2023/05/18 12:51:33;;;;;;;8.93;3.97;;;21.70;70.00;;;;;;5082328;27;20650;-65
2023/05/18 12:54:01;;;;;;;4.90;3.50;;;21.80;70.20;;;;;;5081657;27;20489;-65